createdAt,value
2022-08-22T00:02:36.992Z,100.00
2022-08-22T00:05:11.898Z,100.00
2022-08-22T00:08:00.892Z,100.00
2022-08-22T00:10:56.797Z,100.00
2022-08-22T00:14:02.590Z,100.00
2022-08-22T00:20:28.092Z,100.00
2022-08-22T00:22:55.324Z,100.00
2022-08-22T00:25:43.228Z,100.00
2022-08-22T00:28:38.920Z,100.00
2022-08-22T00:31:33.539Z,100.00
2022-08-22T00:34:06.318Z,100.00
2022-08-22T00:36:43.369Z,100.00
2022-08-22T00:39:35.865Z,100.00
2022-08-22T00:42:31.281Z,100.00
2022-08-22T00:44:58.724Z,100.00
2022-08-22T00:54:54.654Z,100.00
2022-08-22T00:57:36.661Z,100.00
2022-08-22T01:00:12.037Z,100.00
2022-08-22T01:02:52.283Z,100.00
2022-08-22T01:05:44.786Z,100.00
2022-08-22T01:08:26.400Z,100.00
2022-08-22T01:11:10.507Z,100.00
2022-08-22T01:13:50.267Z,100.00
2022-08-22T01:16:16.994Z,100.00
2022-08-22T01:19:18.950Z,100.00
2022-08-22T01:21:55.171Z,100.00
2022-08-22T01:24:37.253Z,100.00
2022-08-22T01:27:43.426Z,100.00
2022-08-22T01:30:27.595Z,100.00
2022-08-22T01:33:32.143Z,100.00
2022-08-22T01:36:19.931Z,100.00
2022-08-22T01:39:04.999Z,100.00
2022-08-22T01:41:37.915Z,100.00
2022-08-22T01:44:10.502Z,100.00
2022-08-22T01:46:46.725Z,100.00
2022-08-22T01:49:23.085Z,100.00
2022-08-22T01:52:05.936Z,100.00
2022-08-22T01:54:54.995Z,100.00
2022-08-22T01:57:23.905Z,100.00
2022-08-22T01:59:55.468Z,100.00
2022-08-22T02:02:40.745Z,100.00
2022-08-22T02:05:24.664Z,100.00
2022-08-22T02:08:03.658Z,100.00
2022-08-22T02:10:42.665Z,100.00
2022-08-22T02:13:12.962Z,100.00
2022-08-22T02:15:43.981Z,100.00
2022-08-22T02:18:31.123Z,100.00
2022-08-22T02:21:08.916Z,100.00
2022-08-22T02:23:44.478Z,100.00
2022-08-22T02:26:45.587Z,100.00
2022-08-22T02:29:15.496Z,100.00
2022-08-22T02:31:58.516Z,100.00
2022-08-22T02:34:32.769Z,100.00
2022-08-22T02:37:05.981Z,100.00
2022-08-22T02:39:39.303Z,100.00
2022-08-22T02:42:33.853Z,100.00
2022-08-22T02:45:12.817Z,100.00
2022-08-22T02:47:51.217Z,100.00
2022-08-22T02:50:31.287Z,100.00
2022-08-22T02:53:03.819Z,100.00
2022-08-22T02:55:38.907Z,100.00
2022-08-22T02:58:24.601Z,100.00
2022-08-22T03:01:33.443Z,100.00
2022-08-22T03:04:41.606Z,100.00
2022-08-22T03:07:20.580Z,100.00
2022-08-22T03:09:59.512Z,100.00
2022-08-22T03:13:10.540Z,100.00
2022-08-22T03:15:49.640Z,100.00
2022-08-22T03:18:28.511Z,100.00
2022-08-22T03:21:36.461Z,100.00
2022-08-22T03:24:24.312Z,100.00
2022-08-22T03:26:56.745Z,100.00
2022-08-22T03:29:32.944Z,100.00
2022-08-22T03:32:14.215Z,100.00
2022-08-22T03:34:56.198Z,100.00
2022-08-22T03:37:42.881Z,100.00
2022-08-22T03:40:46.161Z,100.00
2022-08-22T03:43:18.731Z,100.00
2022-08-22T03:46:14.889Z,100.00
2022-08-22T03:49:06.459Z,100.00
2022-08-22T03:51:52.218Z,100.00
2022-08-22T03:54:45.592Z,100.00
2022-08-22T03:57:23.355Z,100.00
2022-08-22T04:00:21.424Z,100.00
2022-08-22T04:03:06.207Z,100.00
2022-08-22T04:05:35.768Z,100.00
2022-08-22T04:08:26.474Z,100.00
2022-08-22T04:11:15.664Z,100.00
2022-08-22T04:14:36.705Z,100.00
2022-08-22T04:17:34.411Z,100.00
2022-08-22T04:20:10.244Z,100.00
2022-08-22T04:23:26.830Z,100.00
2022-08-22T04:26:18.915Z,100.00
2022-08-22T04:28:52.482Z,100.00
2022-08-22T04:31:31.483Z,100.00
2022-08-22T04:34:19.832Z,100.00
2022-08-22T04:36:56.763Z,100.00
2022-08-22T04:39:50.023Z,100.00
2022-08-22T04:42:32.628Z,100.00
2022-08-22T04:45:09.035Z,100.00
2022-08-22T04:48:01.185Z,100.00
2022-08-22T04:50:43.029Z,100.00
2022-08-22T04:53:31.623Z,100.00
2022-08-22T04:56:15.228Z,100.00
2022-08-22T04:58:47.762Z,100.00
2022-08-22T05:01:27.748Z,100.00
2022-08-22T05:04:02.643Z,100.00
2022-08-22T05:06:32.561Z,100.00
2022-08-22T05:09:04.441Z,100.00
2022-08-22T05:11:34.044Z,100.00
2022-08-22T05:14:07.852Z,100.00
2022-08-22T05:16:40.669Z,100.00
2022-08-22T05:19:31.197Z,100.00
2022-08-22T05:21:59.821Z,100.00
2022-08-22T05:24:48.493Z,100.00
2022-08-22T05:27:23.242Z,100.00
2022-08-22T05:29:55.197Z,100.00
2022-08-22T05:32:32.860Z,100.00
2022-08-22T05:35:03.169Z,100.00
2022-08-22T05:37:53.366Z,100.00
2022-08-22T05:40:24.707Z,100.00
2022-08-22T05:42:53.289Z,100.00
2022-08-22T05:45:21.491Z,100.00
2022-08-22T05:48:03.212Z,100.00
2022-08-22T05:50:36.196Z,100.00
2022-08-22T05:53:09.236Z,100.00
2022-08-22T05:55:54.396Z,100.00
2022-08-22T05:58:53.470Z,100.00
2022-08-22T06:01:23.593Z,100.00
2022-08-22T06:04:15.744Z,100.00
2022-08-22T06:07:07.163Z,100.00
2022-08-22T06:09:43.214Z,100.00
2022-08-22T06:12:26.425Z,100.00
2022-08-22T06:15:20.739Z,100.00
2022-08-22T06:17:51.394Z,100.00
2022-08-22T06:20:25.861Z,100.00
2022-08-22T06:22:59.497Z,100.00
2022-08-22T06:25:32.443Z,100.00
2022-08-22T06:28:06.192Z,100.00
2022-08-22T06:30:35.403Z,100.00
2022-08-22T06:33:07.832Z,100.00
2022-08-22T06:36:08.215Z,100.00
2022-08-22T06:39:00.546Z,100.00
2022-08-22T06:41:30.974Z,100.00
2022-08-22T06:44:00.477Z,100.00
2022-08-22T06:46:29.327Z,100.00
2022-08-22T06:49:00.410Z,100.00
2022-08-22T06:51:29.234Z,100.00
2022-08-22T06:54:03.693Z,100.00
2022-08-22T06:56:36.371Z,100.00
2022-08-22T06:59:12.726Z,100.00
2022-08-22T07:01:48.320Z,100.00
2022-08-22T07:04:15.993Z,100.00
2022-08-22T07:06:50.180Z,99.14
2022-08-22T07:09:23.623Z,100.00
2022-08-22T07:11:52.288Z,99.99
2022-08-22T07:14:29.392Z,100.00
2022-08-22T07:17:03.156Z,99.68
2022-08-22T07:19:33.567Z,99.25
2022-08-22T07:22:12.237Z,99.52
2022-08-22T07:24:48.653Z,99.19
2022-08-22T07:27:57.008Z,98.83
2022-08-22T07:30:34.513Z,97.83
2022-08-22T07:33:21.023Z,96.84
2022-08-22T07:36:23.219Z,95.68
2022-08-22T07:39:13.342Z,96.75
2022-08-22T07:41:45.949Z,95.98
2022-08-22T07:44:22.991Z,92.75
2022-08-22T07:47:18.090Z,93.66
2022-08-22T07:50:04.733Z,92.91
2022-08-22T07:52:40.645Z,92.65
2022-08-22T07:55:17.326Z,91.35
2022-08-22T07:57:49.953Z,92.17
2022-08-22T08:00:20.205Z,92.59
2022-08-22T08:02:52.267Z,94.57
2022-08-22T08:05:24.091Z,94.94
2022-08-22T08:07:54.541Z,95.48
2022-08-22T08:10:32.963Z,94.21
2022-08-22T08:13:03.880Z,92.71
2022-08-22T08:15:34.986Z,92.13
2022-08-22T08:18:11.523Z,90.22
2022-08-22T08:20:39.464Z,88.60
2022-08-22T08:23:10.802Z,88.56
2022-08-22T08:25:54.412Z,86.77
2022-08-22T08:28:34.323Z,84.65
2022-08-22T08:31:10.247Z,85.83
2022-08-22T08:33:41.113Z,88.00
2022-08-22T08:36:34.547Z,88.65
2022-08-22T08:39:19.569Z,89.48
2022-08-22T08:42:15.073Z,90.60
2022-08-22T08:45:06.738Z,89.40
2022-08-22T08:48:05.862Z,88.92
2022-08-22T08:50:50.277Z,88.21
2022-08-22T08:53:47.297Z,88.37
2022-08-22T08:56:32.288Z,85.87
2022-08-22T08:59:02.079Z,86.92
2022-08-22T09:01:49.937Z,86.51
2022-08-22T09:04:17.963Z,83.78
2022-08-22T09:07:18.880Z,85.33
2022-08-22T09:10:00.750Z,87.32
2022-08-22T09:13:12.581Z,88.39
2022-08-22T09:16:04.877Z,88.09
2022-08-22T09:18:59.283Z,87.49
2022-08-22T09:22:14.173Z,85.40
2022-08-22T09:25:06.514Z,76.69
2022-08-22T09:27:59.483Z,73.00
2022-08-22T09:31:16.787Z,70.29
2022-08-22T09:34:28.438Z,69.58
2022-08-22T09:37:04.486Z,73.72
2022-08-22T09:40:00.269Z,75.59
2022-08-22T09:42:44.754Z,76.72
2022-08-22T09:45:17.917Z,76.69
2022-08-22T09:48:15.424Z,78.15
2022-08-22T09:51:01.656Z,78.04
2022-08-22T09:53:44.560Z,79.00
2022-08-22T09:56:26.529Z,79.68
2022-08-22T09:59:09.870Z,80.22
2022-08-22T10:01:53.293Z,78.07
2022-08-22T10:04:34.659Z,77.11
2022-08-22T10:07:26.397Z,77.29
2022-08-22T10:10:12.156Z,77.34
2022-08-22T10:13:23.825Z,77.01
2022-08-22T10:16:09.587Z,75.53
2022-08-22T10:18:52.819Z,75.00
2022-08-22T10:21:21.719Z,72.71
2022-08-22T10:23:53.765Z,73.38
2022-08-22T10:26:22.958Z,71.44
2022-08-22T10:29:31.493Z,71.38
2022-08-22T10:32:18.360Z,69.58
2022-08-22T10:34:59.429Z,67.69
2022-08-22T10:37:36.805Z,66.70
2022-08-22T10:40:28.833Z,65.27
2022-08-22T10:43:13.558Z,64.26
2022-08-22T10:45:45.655Z,64.20
2022-08-22T10:48:19.102Z,65.49
2022-08-22T10:50:50.390Z,64.69
2022-08-22T10:53:34.780Z,65.79
2022-08-22T10:56:27.352Z,65.42
2022-08-22T10:59:16.335Z,65.13
2022-08-22T11:01:58.973Z,62.38
2022-08-22T11:05:02.306Z,63.23
2022-08-22T11:07:29.694Z,62.66
2022-08-22T11:10:09.238Z,61.91
2022-08-22T11:12:44.520Z,61.64
2022-08-22T11:15:27.266Z,63.97
2022-08-22T11:18:23.222Z,63.80
2022-08-22T11:21:01.057Z,63.98
2022-08-22T11:23:54.728Z,64.44
2022-08-22T11:26:47.266Z,64.67
2022-08-22T11:29:38.820Z,63.27
2022-08-22T11:32:24.644Z,63.00
2022-08-22T11:35:00.609Z,62.99
2022-08-22T11:37:58.920Z,62.93
2022-08-22T11:42:52.895Z,59.11
2022-08-22T11:45:24.223Z,59.11
2022-08-22T11:48:09.223Z,60.42
2022-08-22T11:50:43.505Z,60.34
2022-08-22T11:53:11.316Z,60.55
2022-08-22T11:55:53.934Z,61.39
2022-08-22T11:58:48.987Z,61.11
2022-08-22T12:01:21.677Z,59.18
2022-08-22T12:03:58.411Z,57.96
2022-08-22T12:06:59.488Z,59.14
2022-08-22T12:09:40.411Z,57.80
2022-08-22T12:12:13.473Z,57.76
2022-08-22T12:15:11.803Z,58.28
2022-08-22T12:18:01.982Z,59.02
2022-08-22T12:20:40.861Z,59.73
2022-08-22T12:23:50.383Z,59.86
2022-08-22T12:27:02.573Z,61.83
2022-08-22T12:29:55.691Z,60.72
2022-08-22T12:32:43.910Z,60.02
2022-08-22T12:35:30.085Z,59.35
2022-08-22T12:38:41.787Z,59.70
2022-08-22T12:41:27.790Z,59.13
2022-08-22T12:44:23.132Z,58.14
2022-08-22T12:47:14.534Z,55.03
2022-08-22T12:50:14.602Z,54.38
2022-08-22T12:53:18.286Z,51.47
2022-08-22T12:55:57.203Z,54.24
2022-08-22T12:58:36.468Z,56.41
2022-08-22T13:01:08.283Z,54.80
2022-08-22T13:03:43.500Z,54.01
2022-08-22T13:06:35.613Z,54.30
2022-08-22T13:09:11.721Z,54.92
2022-08-22T13:11:41.803Z,53.86
2022-08-22T13:14:15.614Z,51.74
2022-08-22T13:16:52.432Z,52.86
2022-08-22T13:19:24.035Z,49.69
2022-08-22T13:22:08.233Z,48.78
2022-08-22T13:24:52.314Z,50.22
2022-08-22T13:27:26.016Z,51.15
2022-08-22T13:30:00.457Z,52.99
2022-08-22T13:32:33.304Z,54.49
2022-08-22T13:35:01.787Z,53.18
2022-08-22T13:37:41.250Z,52.27
2022-08-22T13:40:13.457Z,49.42
2022-08-22T13:42:47.996Z,46.06
2022-08-22T13:45:24.092Z,46.08
2022-08-22T13:48:03.983Z,50.49
2022-08-22T13:50:54.081Z,52.82
2022-08-22T13:53:41.618Z,54.61
2022-08-22T13:56:25.727Z,55.90
2022-08-22T13:59:03.674Z,56.15
2022-08-22T14:01:53.738Z,58.18
2022-08-22T14:04:34.860Z,58.55
2022-08-22T14:07:06.113Z,58.89
2022-08-22T14:09:47.345Z,58.67
2022-08-22T14:12:21.947Z,59.18
2022-08-22T14:14:56.672Z,59.62
2022-08-22T14:17:34.413Z,60.75
2022-08-22T14:20:14.847Z,60.94
2022-08-22T14:23:06.545Z,59.27
2022-08-22T14:25:39.771Z,59.55
2022-08-22T14:28:11.190Z,59.83
2022-08-22T14:31:01.077Z,60.61
2022-08-22T14:33:39.950Z,61.52
2022-08-22T14:36:21.985Z,60.44
2022-08-22T14:39:01.939Z,58.76
2022-08-22T14:41:55.552Z,59.18
2022-08-22T14:44:39.395Z,57.75
2022-08-22T14:47:54.534Z,60.26
2022-08-22T14:50:12.009Z,63.77
2022-08-22T14:52:45.309Z,65.44
2022-08-22T14:55:20.530Z,65.63
2022-08-22T14:57:57.730Z,64.77
2022-08-22T15:00:39.862Z,63.86
2022-08-22T15:03:32.863Z,62.63
2022-08-22T15:06:03.319Z,62.27
2022-08-22T15:08:34.616Z,62.00
2022-08-22T15:11:11.153Z,63.56
2022-08-22T15:13:43.316Z,63.69
2022-08-22T15:16:17.796Z,64.84
2022-08-22T15:18:51.797Z,65.18
2022-08-22T15:21:24.477Z,66.86
2022-08-22T15:23:59.778Z,68.32
2022-08-22T15:26:32.780Z,69.38
2022-08-22T15:29:07.086Z,70.87
2022-08-22T15:31:35.392Z,72.16
2022-08-22T15:34:13.225Z,72.91
2022-08-22T15:37:25.041Z,73.09
2022-08-22T15:39:58.291Z,73.49
2022-08-22T15:42:30.579Z,74.86
2022-08-22T15:44:59.302Z,73.90
2022-08-22T15:47:34.867Z,74.49
2022-08-22T15:50:10.407Z,76.29
2022-08-22T15:53:04.823Z,75.85
2022-08-22T15:55:37.091Z,74.56
2022-08-22T15:58:12.993Z,74.61
2022-08-22T16:00:45.032Z,73.89
2022-08-22T16:03:25.413Z,75.70
2022-08-22T16:05:56.997Z,75.50
2022-08-22T16:08:32.792Z,76.15
2022-08-22T16:11:03.320Z,76.09
2022-08-22T16:13:30.151Z,76.66
2022-08-22T16:16:11.219Z,77.25
2022-08-22T16:18:39.434Z,78.84
2022-08-22T16:21:13.548Z,81.48
2022-08-22T16:23:58.668Z,84.02
2022-08-22T16:26:31.398Z,85.83
2022-08-22T16:29:13.640Z,86.35
2022-08-22T16:31:58.382Z,90.84
2022-08-22T16:34:28.068Z,94.16
2022-08-22T16:36:54.834Z,96.19
2022-08-22T16:39:21.620Z,97.07
2022-08-22T16:42:14.952Z,100.00
2022-08-22T16:44:44.002Z,100.00
2022-08-22T16:47:13.279Z,100.00
2022-08-22T16:49:56.330Z,100.00
2022-08-22T16:52:26.372Z,100.00
2022-08-22T16:55:06.325Z,100.00
2022-08-22T16:57:36.245Z,100.00
2022-08-22T17:00:32.170Z,100.00
2022-08-22T17:03:34.883Z,100.00
2022-08-22T17:06:32.492Z,100.00
2022-08-22T17:09:30.356Z,100.00
2022-08-22T17:12:37.232Z,100.00
2022-08-22T17:15:36.843Z,100.00
2022-08-22T17:18:22.201Z,100.00
2022-08-22T17:21:04.639Z,100.00
2022-08-22T17:23:50.220Z,100.00
2022-08-22T17:26:48.043Z,100.00
2022-08-22T17:29:28.973Z,100.00
2022-08-22T17:32:22.032Z,100.00
2022-08-22T17:34:59.457Z,100.00
2022-08-22T17:37:50.875Z,100.00
2022-08-22T17:40:25.905Z,100.00
2022-08-22T17:43:21.018Z,100.00
2022-08-22T17:45:54.330Z,100.00
2022-08-22T17:48:27.051Z,100.00
2022-08-22T17:51:00.269Z,100.00
2022-08-22T17:53:44.856Z,100.00
2022-08-22T17:56:20.182Z,100.00
2022-08-22T17:59:09.149Z,100.00
2022-08-22T18:01:51.218Z,100.00
2022-08-22T18:04:59.519Z,100.00
2022-08-22T18:07:49.358Z,100.00
2022-08-22T18:10:22.071Z,100.00
2022-08-22T18:13:03.489Z,100.00
2022-08-22T18:15:43.670Z,100.00
2022-08-22T18:18:33.503Z,100.00
2022-08-22T18:21:15.474Z,100.00
2022-08-22T18:23:52.084Z,100.00
2022-08-22T18:26:44.821Z,100.00
2022-08-22T18:29:16.797Z,100.00
2022-08-22T18:31:46.683Z,100.00
2022-08-22T18:34:20.856Z,100.00
2022-08-22T18:36:56.034Z,100.00
2022-08-22T18:39:31.777Z,100.00
2022-08-22T18:42:21.995Z,100.00
2022-08-22T18:44:48.819Z,100.00
2022-08-22T18:47:34.643Z,100.00
2022-08-22T18:50:32.921Z,100.00
2022-08-22T18:53:00.367Z,100.00
2022-08-22T18:55:27.678Z,100.00
2022-08-22T18:58:28.316Z,100.00
2022-08-22T19:01:21.618Z,100.00
2022-08-22T19:04:24.364Z,100.00
2022-08-22T19:07:32.571Z,100.00
2022-08-22T19:10:05.816Z,100.00
2022-08-22T19:13:01.872Z,100.00
2022-08-22T19:18:28.490Z,100.00
2022-08-22T19:21:33.024Z,100.00
2022-08-22T19:24:00.904Z,100.00
2022-08-22T19:26:34.630Z,100.00
2022-08-22T19:29:16.834Z,100.00
2022-08-22T19:31:49.601Z,100.00
2022-08-22T19:34:27.292Z,100.00
2022-08-22T19:37:32.161Z,100.00
2022-08-22T19:40:11.828Z,100.00
2022-08-22T19:42:44.487Z,100.00
2022-08-22T19:45:26.770Z,100.00
2022-08-22T19:47:58.740Z,100.00
2022-08-22T19:50:33.407Z,100.00
2022-08-22T19:53:33.738Z,100.00
2022-08-22T19:56:03.876Z,100.00
2022-08-22T19:58:50.952Z,100.00
2022-08-22T20:01:41.304Z,100.00
2022-08-22T20:04:56.065Z,100.00
2022-08-22T20:07:52.467Z,100.00
2022-08-22T20:10:50.337Z,100.00
2022-08-22T20:13:24.123Z,100.00
2022-08-22T20:16:11.164Z,100.00
2022-08-22T20:19:18.811Z,100.00
2022-08-22T20:21:58.780Z,100.00
2022-08-22T20:24:44.526Z,100.00
2022-08-22T20:27:26.700Z,100.00
2022-08-22T20:30:07.672Z,100.00
2022-08-22T20:32:51.158Z,100.00
2022-08-22T20:35:27.061Z,100.00
2022-08-22T20:38:09.203Z,100.00
2022-08-22T20:40:55.878Z,100.00
2022-08-22T20:43:49.586Z,100.00
2022-08-22T20:46:25.545Z,100.00
2022-08-22T20:48:55.751Z,100.00
2022-08-22T20:51:25.669Z,100.00
2022-08-22T20:53:58.829Z,100.00
2022-08-22T20:56:53.129Z,100.00
2022-08-22T20:59:29.660Z,100.00
2022-08-22T21:02:34.232Z,100.00
2022-08-22T21:05:00.949Z,100.00
2022-08-22T21:07:36.909Z,100.00
2022-08-22T21:10:23.132Z,100.00
2022-08-22T21:13:07.234Z,100.00
2022-08-22T21:15:43.839Z,100.00
2022-08-22T21:18:23.213Z,100.00
2022-08-22T21:20:50.854Z,100.00
2022-08-22T21:23:19.702Z,100.00
2022-08-22T21:26:02.619Z,100.00
2022-08-22T21:28:31.787Z,100.00
2022-08-22T21:31:07.001Z,100.00
2022-08-22T21:33:33.852Z,100.00
2022-08-22T21:36:01.038Z,100.00
2022-08-22T21:38:28.206Z,100.00
2022-08-22T21:41:01.968Z,100.00
2022-08-22T21:43:34.111Z,100.00
2022-08-22T21:46:01.059Z,100.00
2022-08-22T21:48:41.048Z,100.00
2022-08-22T21:51:22.659Z,100.00
2022-08-22T21:53:58.225Z,100.00
2022-08-22T21:56:37.008Z,100.00
2022-08-22T21:59:24.995Z,100.00
2022-08-22T22:01:53.200Z,100.00
2022-08-22T22:04:22.819Z,100.00
2022-08-22T22:06:49.666Z,100.00
2022-08-22T22:09:16.493Z,100.00
2022-08-22T22:11:43.416Z,100.00
2022-08-22T22:14:10.306Z,100.00
2022-08-22T22:16:38.463Z,100.00
2022-08-22T22:19:08.648Z,100.00
2022-08-22T22:21:36.957Z,100.00
2022-08-22T22:24:04.085Z,100.00
2022-08-22T22:26:31.667Z,100.00
2022-08-22T22:28:59.226Z,100.00
2022-08-22T22:31:26.169Z,100.00
2022-08-22T22:33:52.995Z,100.00
2022-08-22T22:36:23.504Z,100.00
2022-08-22T22:38:51.592Z,100.00
2022-08-22T22:41:21.251Z,100.00
2022-08-22T22:43:48.045Z,100.00
2022-08-22T22:46:14.901Z,100.00
2022-08-22T22:48:41.709Z,100.00
2022-08-22T22:51:10.404Z,100.00
2022-08-22T22:53:42.628Z,100.00
2022-08-22T22:56:13.742Z,100.00
2022-08-22T22:58:42.396Z,100.00
2022-08-22T23:01:19.299Z,100.00
2022-08-22T23:03:47.315Z,100.00
2022-08-22T23:06:19.587Z,100.00
2022-08-22T23:08:47.558Z,100.00
2022-08-22T23:11:19.355Z,100.00
2022-08-22T23:13:48.222Z,100.00
2022-08-22T23:16:21.674Z,100.00
2022-08-22T23:18:49.722Z,100.00
2022-08-22T23:21:18.399Z,100.00
2022-08-22T23:23:46.283Z,100.00
2022-08-22T23:26:14.347Z,100.00
2022-08-22T23:28:41.444Z,100.00
2022-08-22T23:31:33.285Z,100.00
2022-08-22T23:34:11.400Z,100.00
2022-08-22T23:36:40.562Z,100.00
2022-08-22T23:39:09.013Z,100.00
2022-08-22T23:41:36.773Z,100.00
2022-08-22T23:44:06.763Z,100.00
2022-08-22T23:46:35.759Z,100.00
2022-08-22T23:49:04.332Z,100.00
2022-08-22T23:51:31.220Z,100.00
2022-08-22T23:53:59.564Z,100.00
2022-08-22T23:56:29.447Z,100.00
2022-08-22T23:58:57.313Z,100.00
